createdAt,value
2022-10-03T00:01:27.095Z,75.42
2022-10-03T00:04:07.000Z,75.50
2022-10-03T00:06:48.848Z,75.58
2022-10-03T00:09:36.672Z,75.87
2022-10-03T00:12:19.124Z,75.58
2022-10-03T00:14:58.830Z,75.36
2022-10-03T00:17:32.284Z,75.55
2022-10-03T00:20:08.155Z,75.55
2022-10-03T00:22:45.369Z,75.46
2022-10-03T00:25:35.594Z,75.80
2022-10-03T00:28:17.887Z,75.38
2022-10-03T00:31:02.571Z,75.51
2022-10-03T00:33:40.958Z,75.61
2022-10-03T00:36:18.253Z,75.52
2022-10-03T00:39:24.386Z,75.38
2022-10-03T00:42:17.995Z,75.27
2022-10-03T00:45:36.397Z,75.45
2022-10-03T00:48:32.647Z,75.66
2022-10-03T00:51:25.948Z,75.53
2022-10-03T00:54:06.232Z,75.77
2022-10-03T00:56:59.467Z,75.63
2022-10-03T00:59:40.158Z,75.55
2022-10-03T01:02:34.153Z,75.51
2022-10-03T01:05:12.558Z,75.37
2022-10-03T01:08:04.919Z,75.18
2022-10-03T01:10:40.408Z,75.50
2022-10-03T01:13:26.977Z,75.64
2022-10-03T01:16:08.090Z,75.60
2022-10-03T01:18:53.035Z,75.75
2022-10-03T01:21:34.063Z,75.34
2022-10-03T01:24:42.807Z,75.72
2022-10-03T01:27:15.539Z,75.84
2022-10-03T01:30:08.912Z,75.37
2022-10-03T01:32:46.372Z,75.50
2022-10-03T01:35:27.814Z,75.50
2022-10-03T01:38:05.007Z,75.32
2022-10-03T01:40:38.734Z,75.42
2022-10-03T01:43:20.232Z,75.36
2022-10-03T01:46:05.540Z,75.57
2022-10-03T01:48:39.635Z,75.38
2022-10-03T01:51:12.691Z,75.28
2022-10-03T01:53:50.004Z,75.67
2022-10-03T01:56:25.961Z,75.43
2022-10-03T01:59:01.523Z,75.55
2022-10-03T02:01:41.061Z,75.53
2022-10-03T02:04:16.695Z,75.81
2022-10-03T02:06:54.758Z,75.79
2022-10-03T02:09:32.047Z,75.43
2022-10-03T02:12:09.695Z,75.61
2022-10-03T02:14:50.598Z,75.61
2022-10-03T02:17:37.356Z,75.65
2022-10-03T02:20:13.220Z,75.77
2022-10-03T02:22:46.432Z,75.65
2022-10-03T02:25:25.442Z,75.54
2022-10-03T02:28:30.492Z,75.29
2022-10-03T02:31:30.159Z,75.14
2022-10-03T02:34:25.716Z,75.12
2022-10-03T02:37:34.503Z,75.18
2022-10-03T02:40:27.398Z,74.90
2022-10-03T02:43:20.443Z,75.00
2022-10-03T02:46:40.102Z,74.69
2022-10-03T02:49:44.709Z,74.79
2022-10-03T02:52:42.666Z,74.83
2022-10-03T02:55:36.450Z,74.60
2022-10-03T02:58:26.219Z,74.65
2022-10-03T03:01:18.189Z,74.86
2022-10-03T03:04:06.079Z,74.78
2022-10-03T03:07:01.625Z,74.78
2022-10-03T03:10:25.135Z,74.90
2022-10-03T03:13:36.939Z,74.88
2022-10-03T03:16:47.679Z,74.57
2022-10-03T03:19:42.857Z,74.71
2022-10-03T03:22:25.352Z,74.64
2022-10-03T03:25:06.940Z,74.49
2022-10-03T03:27:48.821Z,74.39
2022-10-03T03:30:19.936Z,74.46
2022-10-03T03:33:03.121Z,74.78
2022-10-03T03:35:43.724Z,74.21
2022-10-03T03:38:28.123Z,74.26
2022-10-03T03:41:13.218Z,74.55
2022-10-03T03:44:00.365Z,74.22
2022-10-03T03:46:41.990Z,74.19
2022-10-03T03:49:31.713Z,74.19
2022-10-03T03:52:18.946Z,74.09
2022-10-03T03:55:05.881Z,74.16
2022-10-03T03:58:06.931Z,73.89
2022-10-03T04:00:51.690Z,73.96
2022-10-03T04:03:31.511Z,74.20
2022-10-03T04:06:22.528Z,73.85
2022-10-03T04:09:21.305Z,74.17
2022-10-03T04:12:00.184Z,74.34
2022-10-03T04:14:52.638Z,74.46
2022-10-03T04:17:52.660Z,74.84
2022-10-03T04:20:37.178Z,74.81
2022-10-03T04:23:21.440Z,74.73
2022-10-03T04:26:12.231Z,74.59
2022-10-03T04:28:53.739Z,74.80
2022-10-03T04:31:44.195Z,75.01
2022-10-03T04:34:26.220Z,74.73
2022-10-03T04:37:12.926Z,74.67
2022-10-03T04:39:50.984Z,74.82
2022-10-03T04:42:39.533Z,75.01
2022-10-03T04:45:29.163Z,74.91
2022-10-03T04:48:06.121Z,74.76
2022-10-03T04:50:42.777Z,74.80
2022-10-03T04:53:25.209Z,74.80
2022-10-03T04:56:01.896Z,74.86
2022-10-03T04:58:38.707Z,74.97
2022-10-03T05:01:15.155Z,74.89
2022-10-03T05:03:55.205Z,75.14
2022-10-03T05:06:39.288Z,75.20
2022-10-03T05:09:23.733Z,75.36
2022-10-03T05:12:01.060Z,75.16
2022-10-03T05:14:49.708Z,75.21
2022-10-03T05:17:23.485Z,75.32
2022-10-03T05:20:15.537Z,75.16
2022-10-03T05:22:53.712Z,75.00
2022-10-03T05:25:32.705Z,74.82
2022-10-03T05:28:13.650Z,74.51
2022-10-03T05:30:50.016Z,74.87
2022-10-03T05:33:28.351Z,75.06
2022-10-03T05:36:07.660Z,74.83
2022-10-03T05:39:16.242Z,74.99
2022-10-03T05:42:11.227Z,74.97
2022-10-03T05:44:44.921Z,75.16
2022-10-03T05:47:31.196Z,74.66
2022-10-03T05:50:28.410Z,74.84
2022-10-03T05:53:07.798Z,74.65
2022-10-03T05:55:53.394Z,74.95
2022-10-03T05:58:41.363Z,75.06
2022-10-03T06:01:44.791Z,75.03
2022-10-03T06:04:37.104Z,75.16
2022-10-03T06:07:19.088Z,74.96
2022-10-03T06:10:19.228Z,74.75
2022-10-03T06:13:04.690Z,74.66
2022-10-03T06:15:54.603Z,74.85
2022-10-03T06:18:44.439Z,74.73
2022-10-03T06:21:32.276Z,74.51
2022-10-03T06:24:39.685Z,74.11
2022-10-03T06:27:52.422Z,73.82
2022-10-03T06:30:27.329Z,73.62
2022-10-03T06:33:30.864Z,72.03
2022-10-03T06:36:48.185Z,67.79
2022-10-03T06:39:54.470Z,63.37
2022-10-03T06:42:45.964Z,61.37
2022-10-03T06:45:56.444Z,62.17
2022-10-03T06:49:05.886Z,63.51
2022-10-03T06:52:00.689Z,64.67
2022-10-03T06:55:08.294Z,65.41
2022-10-03T06:58:04.750Z,65.76
2022-10-03T07:00:49.956Z,64.77
2022-10-03T07:03:51.784Z,64.93
2022-10-03T07:06:59.741Z,64.55
2022-10-03T07:10:04.587Z,62.91
2022-10-03T07:13:00.711Z,56.85
2022-10-03T07:16:20.652Z,54.88
2022-10-03T07:19:12.395Z,54.58
2022-10-03T07:22:08.704Z,52.52
2022-10-03T07:25:22.809Z,50.56
2022-10-03T07:28:10.348Z,47.81
2022-10-03T07:30:57.038Z,46.92
2022-10-03T07:33:48.063Z,43.62
2022-10-03T07:36:49.996Z,40.61
2022-10-03T07:39:42.911Z,40.03
2022-10-03T07:42:46.100Z,37.96
2022-10-03T07:45:40.311Z,36.34
2022-10-03T07:48:59.785Z,34.92
2022-10-03T07:51:38.187Z,33.05
2022-10-03T07:54:51.959Z,36.48
2022-10-03T07:57:38.027Z,38.30
2022-10-03T08:00:16.926Z,40.02
2022-10-03T08:03:15.482Z,41.80
2022-10-03T08:06:15.674Z,43.61
2022-10-03T08:09:04.199Z,43.61
2022-10-03T08:12:14.540Z,45.42
2022-10-03T08:14:55.064Z,45.62
2022-10-03T08:18:12.705Z,46.63
2022-10-03T08:20:52.551Z,43.62
2022-10-03T08:24:06.451Z,42.62
2022-10-03T08:27:00.292Z,43.06
2022-10-03T08:29:42.600Z,43.96
2022-10-03T08:32:48.939Z,46.01
2022-10-03T08:35:55.423Z,47.00
2022-10-03T08:39:04.155Z,46.33
2022-10-03T08:42:08.967Z,45.39
2022-10-03T08:45:27.074Z,43.00
2022-10-03T08:48:27.425Z,40.38
2022-10-03T08:51:45.115Z,40.36
2022-10-03T08:54:35.882Z,40.63
2022-10-03T08:57:45.354Z,42.35
2022-10-03T09:00:20.181Z,41.93
2022-10-03T09:03:42.872Z,43.64
2022-10-03T09:07:19.408Z,45.45
2022-10-03T09:10:34.424Z,45.70
2022-10-03T09:13:35.665Z,44.24
2022-10-03T09:16:27.456Z,42.61
2022-10-03T09:19:26.484Z,40.73
2022-10-03T09:22:12.161Z,41.30
2022-10-03T09:25:23.675Z,39.68
2022-10-03T09:28:53.643Z,39.07
2022-10-03T09:31:49.310Z,38.99
2022-10-03T09:34:51.647Z,35.59
2022-10-03T09:37:44.219Z,32.93
2022-10-03T09:40:53.316Z,32.42
2022-10-03T09:44:04.362Z,31.53
2022-10-03T09:47:07.655Z,29.19
2022-10-03T09:49:59.812Z,29.50
2022-10-03T09:52:51.161Z,29.40
2022-10-03T09:55:42.901Z,28.69
2022-10-03T09:58:35.298Z,28.88
2022-10-03T10:01:16.014Z,28.41
2022-10-03T10:04:50.178Z,30.27
2022-10-03T10:07:41.620Z,33.38
2022-10-03T10:10:53.879Z,33.95
2022-10-03T10:14:08.647Z,32.50
2022-10-03T10:17:08.476Z,30.99
2022-10-03T10:19:53.967Z,31.52
2022-10-03T10:22:51.393Z,28.77
2022-10-03T10:25:39.723Z,28.51
2022-10-03T10:28:44.669Z,30.71
2022-10-03T10:31:38.719Z,30.44
2022-10-03T10:34:56.576Z,28.16
2022-10-03T10:38:17.492Z,25.08
2022-10-03T10:41:31.384Z,21.98
2022-10-03T10:44:45.547Z,21.33
2022-10-03T10:47:48.793Z,19.95
2022-10-03T10:50:52.320Z,21.47
2022-10-03T10:54:03.036Z,22.63
2022-10-03T10:57:03.596Z,22.97
2022-10-03T11:00:09.147Z,23.63
2022-10-03T11:03:13.423Z,21.65
2022-10-03T11:05:58.208Z,19.30
2022-10-03T11:09:00.029Z,20.15
2022-10-03T11:12:08.670Z,20.80
2022-10-03T11:15:18.568Z,22.71
2022-10-03T11:18:23.672Z,25.62
2022-10-03T11:21:25.820Z,26.84
2022-10-03T11:24:22.123Z,27.99
2022-10-03T11:27:28.644Z,25.25
2022-10-03T11:30:23.993Z,22.42
2022-10-03T11:33:37.323Z,22.21
2022-10-03T11:36:46.329Z,24.95
2022-10-03T11:39:22.951Z,24.71
2022-10-03T11:41:57.014Z,24.78
2022-10-03T11:44:31.171Z,27.53
2022-10-03T11:47:30.823Z,26.25
2022-10-03T11:50:23.069Z,23.93
2022-10-03T11:53:12.250Z,22.93
2022-10-03T11:55:44.016Z,23.44
2022-10-03T11:58:42.107Z,23.08
2022-10-03T12:01:28.714Z,21.85
2022-10-03T12:04:04.374Z,20.07
2022-10-03T12:07:17.529Z,19.33
2022-10-03T12:10:02.388Z,19.46
2022-10-03T12:12:38.757Z,21.16
2022-10-03T12:15:22.185Z,21.72
2022-10-03T12:18:01.637Z,22.09
2022-10-03T12:20:38.154Z,24.01
2022-10-03T12:23:20.234Z,27.14
2022-10-03T12:25:50.475Z,26.17
2022-10-03T12:28:22.894Z,27.17
2022-10-03T12:30:56.246Z,27.90
2022-10-03T12:33:39.213Z,28.93
2022-10-03T12:36:15.258Z,29.06
2022-10-03T12:38:57.316Z,30.06
2022-10-03T12:41:42.350Z,28.95
2022-10-03T12:44:21.777Z,31.27
2022-10-03T12:47:03.135Z,33.71
2022-10-03T12:49:47.390Z,34.50
2022-10-03T12:52:22.364Z,35.55
2022-10-03T12:54:55.360Z,35.95
2022-10-03T12:57:47.347Z,36.69
2022-10-03T13:00:21.870Z,37.82
2022-10-03T13:03:03.863Z,37.79
2022-10-03T13:05:44.444Z,38.13
2022-10-03T13:08:28.495Z,38.47
2022-10-03T13:11:03.522Z,38.75
2022-10-03T13:13:51.209Z,39.05
2022-10-03T13:16:25.535Z,39.04
2022-10-03T13:19:01.992Z,38.34
2022-10-03T13:21:54.951Z,38.91
2022-10-03T13:24:33.608Z,39.98
2022-10-03T13:27:12.353Z,39.46
2022-10-03T13:29:43.737Z,39.56
2022-10-03T13:32:17.898Z,38.84
2022-10-03T13:35:24.350Z,39.36
2022-10-03T13:38:28.327Z,39.81
2022-10-03T13:41:04.030Z,40.84
2022-10-03T13:43:37.745Z,41.83
2022-10-03T13:46:13.122Z,41.15
2022-10-03T13:48:44.247Z,42.46
2022-10-03T13:51:29.040Z,42.37
2022-10-03T13:54:05.348Z,42.89
2022-10-03T13:56:53.437Z,41.61
2022-10-03T13:59:54.627Z,42.10
2022-10-03T14:02:42.084Z,43.19
2022-10-03T14:05:28.758Z,44.48
2022-10-03T14:08:01.518Z,43.14
2022-10-03T14:11:02.528Z,42.82
2022-10-03T14:13:37.445Z,45.28
2022-10-03T14:16:13.331Z,45.33
2022-10-03T14:18:53.451Z,46.17
2022-10-03T14:21:46.618Z,45.45
2022-10-03T14:24:29.588Z,45.98
2022-10-03T14:27:09.589Z,46.35
2022-10-03T14:29:49.411Z,47.66
2022-10-03T14:32:46.155Z,46.80
2022-10-03T14:35:25.294Z,47.45
2022-10-03T14:38:02.193Z,45.24
2022-10-03T14:40:37.473Z,48.66
2022-10-03T14:43:28.936Z,47.21
2022-10-03T14:46:00.484Z,48.98
2022-10-03T14:48:32.762Z,50.18
2022-10-03T14:51:11.607Z,50.47
2022-10-03T14:53:40.006Z,49.74
2022-10-03T14:56:12.474Z,51.33
2022-10-03T14:58:47.132Z,52.19
2022-10-03T15:01:20.012Z,53.05
2022-10-03T15:03:59.456Z,53.49
2022-10-03T15:07:08.970Z,53.69
2022-10-03T15:09:44.013Z,54.14
2022-10-03T15:12:17.880Z,54.86
2022-10-03T15:14:54.480Z,55.05
2022-10-03T15:17:25.217Z,55.09
2022-10-03T15:19:55.900Z,54.69
2022-10-03T15:22:30.172Z,55.34
2022-10-03T15:25:03.219Z,55.12
2022-10-03T15:27:31.655Z,55.01
2022-10-03T15:30:03.778Z,55.12
2022-10-03T15:32:37.289Z,56.01
2022-10-03T15:35:07.029Z,56.76
2022-10-03T15:37:43.967Z,56.74
2022-10-03T15:40:22.588Z,56.59
2022-10-03T15:42:54.071Z,57.46
2022-10-03T15:45:29.883Z,58.01
2022-10-03T15:48:01.750Z,57.97
2022-10-03T15:50:33.449Z,58.72
2022-10-03T15:53:34.575Z,59.02
2022-10-03T15:56:09.599Z,59.96
2022-10-03T15:59:07.192Z,59.57
2022-10-03T16:01:46.546Z,60.51
2022-10-03T16:04:20.256Z,60.61
2022-10-03T16:06:59.494Z,61.25
2022-10-03T16:09:32.991Z,61.25
2022-10-03T16:12:44.597Z,61.87
2022-10-03T16:15:39.664Z,61.52
2022-10-03T16:18:35.000Z,61.87
2022-10-03T16:21:07.238Z,62.82
2022-10-03T16:23:45.856Z,62.81
2022-10-03T16:26:21.934Z,63.06
2022-10-03T16:28:53.898Z,63.39
2022-10-03T16:31:42.127Z,63.63
2022-10-03T16:34:48.676Z,63.60
2022-10-03T16:37:20.549Z,64.16
2022-10-03T16:40:00.436Z,63.83
2022-10-03T16:42:39.801Z,64.49
2022-10-03T16:45:23.276Z,64.29
2022-10-03T16:48:08.557Z,64.67
2022-10-03T16:50:46.145Z,64.65
2022-10-03T16:53:16.214Z,64.78
2022-10-03T16:55:49.303Z,65.36
2022-10-03T16:58:27.394Z,65.17
2022-10-03T17:04:03.033Z,65.76
2022-10-03T17:06:35.806Z,65.74
2022-10-03T17:09:09.427Z,65.68
2022-10-03T17:11:39.996Z,66.06
2022-10-03T17:14:14.621Z,66.35
2022-10-03T17:16:50.677Z,66.46
2022-10-03T17:19:30.958Z,66.60
2022-10-03T17:22:08.780Z,66.81
2022-10-03T17:24:50.143Z,66.82
2022-10-03T17:27:28.610Z,66.91
2022-10-03T17:30:02.474Z,67.00
2022-10-03T17:32:37.790Z,66.84
2022-10-03T17:35:14.328Z,66.99
2022-10-03T17:38:37.125Z,67.28
2022-10-03T17:41:22.396Z,67.02
2022-10-03T17:44:04.651Z,67.63
2022-10-03T17:46:43.443Z,67.81
2022-10-03T17:49:44.030Z,67.52
2022-10-03T17:52:16.611Z,68.20
2022-10-03T17:54:49.237Z,67.95
2022-10-03T17:57:23.712Z,68.42
2022-10-03T18:00:00.307Z,68.30
2022-10-03T18:02:37.059Z,68.29
2022-10-03T18:05:17.621Z,68.27
2022-10-03T18:07:46.839Z,68.75
2022-10-03T18:10:24.703Z,68.77
2022-10-03T18:12:56.323Z,68.59
2022-10-03T18:15:51.686Z,68.53
2022-10-03T18:18:44.860Z,68.79
2022-10-03T18:21:19.847Z,68.98
2022-10-03T18:24:11.208Z,68.83
2022-10-03T18:26:44.594Z,69.08
2022-10-03T18:29:22.329Z,68.95
2022-10-03T18:31:55.444Z,68.97
2022-10-03T18:34:31.032Z,69.11
2022-10-03T18:37:04.432Z,69.29
2022-10-03T18:39:37.663Z,69.46
2022-10-03T18:42:11.692Z,69.34
2022-10-03T18:44:46.220Z,69.49
2022-10-03T18:47:22.447Z,69.54
2022-10-03T18:50:00.986Z,69.51
2022-10-03T18:52:38.023Z,69.66
2022-10-03T18:55:16.123Z,69.94
2022-10-03T18:57:51.167Z,69.90
2022-10-03T19:00:21.426Z,69.99
2022-10-03T19:02:55.160Z,69.80
2022-10-03T19:05:26.572Z,70.09
2022-10-03T19:08:08.413Z,69.96
2022-10-03T19:10:40.832Z,70.29
2022-10-03T19:13:31.365Z,69.85
2022-10-03T19:16:22.356Z,70.31
2022-10-03T19:19:02.009Z,70.26
2022-10-03T19:21:36.598Z,70.32
2022-10-03T19:24:12.047Z,70.52
2022-10-03T19:26:45.306Z,70.67
2022-10-03T19:29:20.519Z,70.47
2022-10-03T19:31:59.233Z,70.74
2022-10-03T19:34:33.689Z,70.97
2022-10-03T19:37:02.063Z,70.76
2022-10-03T19:39:32.742Z,70.81
2022-10-03T19:42:25.155Z,70.96
2022-10-03T19:45:01.594Z,70.84
2022-10-03T19:47:32.864Z,70.98
2022-10-03T19:50:12.709Z,71.10
2022-10-03T19:52:41.746Z,71.16
2022-10-03T19:55:14.839Z,71.20
2022-10-03T19:57:46.953Z,71.33
2022-10-03T20:00:31.614Z,71.09
2022-10-03T20:03:13.172Z,70.96
2022-10-03T20:06:02.525Z,71.20
2022-10-03T20:08:39.826Z,71.38
2022-10-03T20:11:22.669Z,71.21
2022-10-03T20:13:51.526Z,71.38
2022-10-03T20:16:23.516Z,71.51
2022-10-03T20:18:54.091Z,71.26
2022-10-03T20:21:26.414Z,71.29
2022-10-03T20:23:55.290Z,71.40
2022-10-03T20:26:34.182Z,71.31
2022-10-03T20:29:15.851Z,71.25
2022-10-03T20:31:46.150Z,71.63
2022-10-03T20:34:16.905Z,71.25
2022-10-03T20:36:49.952Z,71.48
2022-10-03T20:39:26.387Z,71.33
2022-10-03T20:42:01.693Z,70.84
2022-10-03T20:44:48.951Z,71.50
2022-10-03T20:47:32.416Z,71.31
2022-10-03T20:50:03.324Z,71.43
2022-10-03T20:52:33.645Z,71.44
2022-10-03T20:55:06.268Z,71.58
2022-10-03T20:57:40.223Z,71.83
2022-10-03T21:00:17.659Z,71.73
2022-10-03T21:02:52.543Z,71.85
2022-10-03T21:05:24.998Z,71.87
2022-10-03T21:07:56.423Z,72.16
2022-10-03T21:10:29.807Z,72.00
2022-10-03T21:13:00.082Z,72.00
2022-10-03T21:15:41.770Z,72.09
2022-10-03T21:18:21.726Z,71.99
2022-10-03T21:23:48.859Z,72.06
2022-10-03T21:26:24.042Z,72.31
2022-10-03T21:29:29.635Z,72.06
2022-10-03T21:32:09.539Z,72.10
2022-10-03T21:34:48.207Z,72.17
2022-10-03T21:37:22.559Z,72.24
2022-10-03T21:40:06.144Z,72.19
2022-10-03T21:42:43.100Z,72.28
2022-10-03T21:45:23.306Z,72.52
2022-10-03T21:47:57.822Z,72.61
2022-10-03T21:50:31.617Z,72.54
2022-10-03T21:53:15.320Z,72.56
2022-10-03T21:55:58.815Z,72.47
2022-10-03T21:58:42.070Z,72.35
2022-10-03T22:01:19.191Z,72.27
2022-10-03T22:03:52.632Z,72.50
2022-10-03T22:06:25.734Z,72.55
2022-10-03T22:08:54.678Z,72.46
2022-10-03T22:11:40.385Z,72.30
2022-10-03T22:14:18.132Z,72.54
2022-10-03T22:16:55.884Z,72.71
2022-10-03T22:19:35.995Z,72.68
2022-10-03T22:22:36.308Z,72.56
2022-10-03T22:25:33.051Z,72.53
2022-10-03T22:28:13.923Z,72.59
2022-10-03T22:30:48.279Z,72.75
2022-10-03T22:33:39.021Z,72.92
2022-10-03T22:36:37.219Z,72.34
2022-10-03T22:39:12.297Z,72.66
2022-10-03T22:41:42.645Z,72.68
2022-10-03T22:44:13.527Z,73.07
2022-10-03T22:46:46.727Z,73.13
2022-10-03T22:49:24.137Z,73.06
2022-10-03T22:51:56.311Z,72.96
2022-10-03T22:54:34.549Z,72.83
2022-10-03T22:57:06.311Z,73.07
2022-10-03T22:59:39.495Z,73.00
2022-10-03T23:02:11.343Z,73.19
2022-10-03T23:04:44.082Z,73.00
2022-10-03T23:07:46.179Z,72.69
2022-10-03T23:10:29.887Z,72.81
2022-10-03T23:13:04.175Z,73.00
2022-10-03T23:15:34.507Z,73.04
2022-10-03T23:18:34.774Z,72.96
2022-10-03T23:21:08.026Z,72.79
2022-10-03T23:23:43.316Z,73.35
2022-10-03T23:26:48.728Z,72.69
2022-10-03T23:29:21.483Z,73.35
2022-10-03T23:33:04.194Z,73.11
2022-10-03T23:35:39.899Z,73.10
2022-10-03T23:38:41.208Z,72.90
2022-10-03T23:41:15.988Z,73.41
2022-10-03T23:44:21.442Z,72.95
2022-10-03T23:46:54.110Z,73.30
2022-10-03T23:49:42.859Z,73.21
2022-10-03T23:52:17.412Z,73.42
2022-10-03T23:54:48.205Z,73.07
2022-10-03T23:57:18.474Z,73.42
